Time;durP1;ratioP1;P1;durP2;ratioP2;P2;SDS_P1;SDS_P2;PMS_P1;PMS_P2;Temp;Humidity;BMP_temperature;BMP_pressure;BME280_temperature;BME280_humidity;BME280_pressure;Samples;Min_cycle;Max_cycle;Signal;HPM_P1;HPM_P2
2022/03/28 00:00:16;;;;;;;13.38;9.10;;;8.70;44.70;;;;;;5037953;28;20655;-81
2022/03/28 00:02:44;;;;;;;13.13;9.45;;;8.70;45.00;;;;;;5037739;28;20270;-79
2022/03/28 00:05:13;;;;;;;11.30;9.15;;;8.60;45.20;;;;;;5041030;28;20666;-80
2022/03/28 00:07:41;;;;;;;16.05;9.30;;;8.60;45.80;;;;;;5056413;28;20202;-78
2022/03/28 00:10:10;;;;;;;12.48;8.88;;;8.60;46.10;;;;;;5057366;28;20217;-78
2022/03/28 00:12:38;;;;;;;15.40;9.18;;;8.50;46.20;;;;;;5058175;28;20302;-78
2022/03/28 00:15:06;;;;;;;14.82;8.80;;;8.50;46.40;;;;;;5071506;28;20210;-79
2022/03/28 00:17:36;;;;;;;13.30;9.50;;;8.50;46.40;;;;;;5076889;28;20194;-80
2022/03/28 00:20:03;;;;;;;11.82;9.23;;;8.50;46.70;;;;;;5068793;28;20211;-80
2022/03/28 00:22:30;;;;;;;12.60;8.85;;;8.40;46.90;;;;;;5062063;28;20385;-78
2022/03/28 00:24:59;;;;;;;16.13;9.52;;;8.40;47.20;;;;;;5057759;28;20214;-79
2022/03/28 00:27:26;;;;;;;14.95;9.80;;;8.30;47.60;;;;;;5038059;28;20203;-79
2022/03/28 00:29:52;;;;;;;12.80;8.60;;;8.30;48.20;;;;;;5038328;28;20215;-80
2022/03/28 00:32:19;;;;;;;15.85;10.35;;;8.20;48.40;;;;;;5039283;28;20329;-79
2022/03/28 00:34:47;;;;;;;14.32;9.50;;;8.20;48.70;;;;;;5053691;28;20569;-79
2022/03/28 00:37:14;;;;;;;9.45;7.90;;;8.10;48.60;;;;;;5071569;28;20234;-80
2022/03/28 00:39:41;;;;;;;19.30;10.60;;;8.10;48.60;;;;;;5060546;28;20211;-80
2022/03/28 00:42:11;;;;;;;12.85;9.25;;;8.10;48.60;;;;;;5052177;28;20223;-79
2022/03/28 00:44:39;;;;;;;13.77;9.77;;;8.00;48.40;;;;;;5052126;28;20211;-79
2022/03/28 00:47:07;;;;;;;13.43;8.93;;;8.10;48.60;;;;;;5053339;28;20231;-79
2022/03/28 00:49:34;;;;;;;14.65;9.00;;;8.10;48.50;;;;;;5049469;28;20199;-79
2022/03/28 00:52:01;;;;;;;15.02;9.40;;;8.00;48.50;;;;;;5059428;28;20250;-79
2022/03/28 00:54:28;;;;;;;13.98;9.13;;;7.90;49.00;;;;;;5058152;28;20222;-79
2022/03/28 00:56:56;;;;;;;13.82;8.70;;;7.90;49.30;;;;;;5051165;28;20217;-78
2022/03/28 00:59:24;;;;;;;14.52;9.40;;;7.80;49.80;;;;;;5046739;28;20226;-79
2022/03/28 01:01:51;;;;;;;11.35;8.40;;;7.80;49.40;;;;;;5052809;28;20290;-79
2022/03/28 01:04:18;;;;;;;11.43;8.73;;;7.80;49.70;;;;;;5040019;28;20210;-77
2022/03/28 01:06:45;;;;;;;15.48;9.38;;;7.70;49.70;;;;;;5039767;28;20663;-78
2022/03/28 01:09:12;;;;;;;12.25;8.98;;;7.60;50.10;;;;;;5036875;28;20203;-79
2022/03/28 01:11:41;;;;;;;9.82;7.90;;;7.60;50.50;;;;;;5041880;28;20327;-79
2022/03/28 01:14:08;;;;;;;10.82;8.73;;;7.60;50.50;;;;;;5038979;28;20670;-79
2022/03/28 01:18:05;;;;;;;10.70;8.40;;;7.50;50.50;;;;;;5039716;28;20203;-79
2022/03/28 01:19:23;;;;;;;12.60;8.73;;;7.40;50.60;;;;;;5060410;28;20210;-79
2022/03/28 01:21:51;;;;;;;11.38;9.77;;;7.40;51.10;;;;;;5064023;28;20331;-79
2022/03/28 01:24:18;;;;;;;14.20;8.02;;;7.40;51.00;;;;;;5052563;28;20235;-79
2022/03/28 01:26:46;;;;;;;12.70;8.50;;;7.40;51.10;;;;;;5055420;28;20279;-81
2022/03/28 01:29:14;;;;;;;11.48;8.07;;;7.40;50.60;;;;;;5054047;28;20207;-81
2022/03/28 01:31:41;;;;;;;14.32;9.13;;;7.50;50.40;;;;;;5058465;28;20218;-80
2022/03/28 01:34:16;;;;;;;12.40;8.75;;;7.40;50.20;;;;;;5053639;28;20214;-80
2022/03/28 01:36:44;;;;;;;12.95;8.50;;;7.40;50.60;;;;;;5046454;28;20209;-79
2022/03/28 01:39:13;;;;;;;13.75;8.35;;;7.30;50.60;;;;;;5042047;28;20564;-79
2022/03/28 01:41:40;;;;;;;12.85;7.97;;;7.30;50.90;;;;;;5040574;28;20223;-79
2022/03/28 01:44:07;;;;;;;13.73;8.45;;;7.30;51.10;;;;;;5047452;28;20237;-79
2022/03/28 01:46:40;;;;;;;11.95;8.52;;;7.30;50.90;;;;;;5053013;28;20214;-78
2022/03/28 01:49:07;;;;;;;15.00;8.98;;;7.30;50.60;;;;;;5043414;28;20210;-79
2022/03/28 01:51:34;;;;;;;12.88;8.10;;;7.20;50.70;;;;;;5041801;28;20218;-79
2022/03/28 01:54:01;;;;;;;16.02;8.93;;;7.10;51.00;;;;;;5042702;28;20207;-80
2022/03/28 01:56:30;;;;;;;12.20;8.32;;;7.10;51.40;;;;;;5042905;28;20282;-78
2022/03/28 01:58:57;;;;;;;11.63;8.23;;;7.10;51.00;;;;;;5042727;28;20261;-79
2022/03/28 02:01:24;;;;;;;14.38;7.75;;;7.10;51.10;;;;;;5041676;28;20223;-79
2022/03/28 02:03:51;;;;;;;10.57;7.68;;;7.10;51.20;;;;;;5048580;28;20262;-79
2022/03/28 02:06:17;;;;;;;11.68;8.15;;;7.00;51.40;;;;;;5056203;28;20250;-78
2022/03/28 02:08:45;;;;;;;12.18;7.68;;;7.00;51.60;;;;;;5055693;28;20230;-79
2022/03/28 02:11:12;;;;;;;10.40;7.38;;;6.90;52.20;;;;;;5053254;28;20234;-79
2022/03/28 02:13:40;;;;;;;9.95;7.80;;;7.00;52.40;;;;;;5051664;28;20266;-78
2022/03/28 02:16:08;;;;;;;15.35;8.50;;;6.90;53.00;;;;;;5071825;28;20274;-79
2022/03/28 02:18:35;;;;;;;12.63;7.65;;;6.80;52.20;;;;;;5070237;28;20209;-79
2022/03/28 02:21:02;;;;;;;11.05;7.75;;;6.70;52.60;;;;;;5059821;28;20231;-79
2022/03/28 02:23:29;;;;;;;14.35;7.97;;;6.70;53.00;;;;;;5040818;28;20241;-80
2022/03/28 02:25:56;;;;;;;11.60;8.15;;;6.60;53.80;;;;;;5050582;28;20683;-80
2022/03/28 02:28:23;;;;;;;14.38;9.70;;;6.60;54.00;;;;;;5053234;28;20208;-78
2022/03/28 02:30:51;;;;;;;14.48;9.30;;;6.60;54.00;;;;;;5053204;28;20565;-79
2022/03/28 02:33:18;;;;;;;13.50;8.77;;;6.70;54.30;;;;;;5053362;28;20275;-79
2022/03/28 02:35:46;;;;;;;13.18;9.13;;;6.70;53.70;;;;;;5053684;28;20203;-78
2022/03/28 02:38:13;;;;;;;12.55;9.02;;;6.70;54.20;;;;;;5054153;28;20197;-79
2022/03/28 02:40:40;;;;;;;11.43;8.05;;;6.70;54.00;;;;;;5074837;28;20257;-79
2022/03/28 02:43:07;;;;;;;17.17;9.57;;;6.70;53.60;;;;;;5077482;28;20223;-79
2022/03/28 02:45:36;;;;;;;14.20;8.93;;;6.60;54.00;;;;;;5067469;28;20202;-79
2022/03/28 02:48:05;;;;;;;12.88;9.30;;;6.50;54.30;;;;;;5070866;28;20252;-80
2022/03/28 02:50:34;;;;;;;12.07;8.40;;;6.50;54.70;;;;;;5068021;28;20256;-79
2022/03/28 02:53:02;;;;;;;17.33;8.90;;;6.40;55.10;;;;;;5067470;28;20202;-79
2022/03/28 02:55:29;;;;;;;11.88;8.07;;;6.40;55.40;;;;;;5046410;28;20204;-80
2022/03/28 02:57:55;;;;;;;14.48;7.95;;;6.40;55.90;;;;;;5042087;28;20215;-79
2022/03/28 03:00:22;;;;;;;12.10;8.85;;;6.30;56.50;;;;;;5056081;28;20336;-79
2022/03/28 03:02:49;;;;;;;13.20;9.48;;;6.20;56.40;;;;;;5062044;28;20256;-79
2022/03/28 03:05:18;;;;;;;11.15;8.75;;;6.20;56.40;;;;;;5055987;28;20287;-79
2022/03/28 03:07:45;;;;;;;16.23;9.13;;;6.20;56.40;;;;;;5042976;28;20210;-79
2022/03/28 03:10:12;;;;;;;9.13;7.80;;;6.10;56.90;;;;;;5055108;28;20199;-79
2022/03/28 03:12:39;;;;;;;13.55;8.18;;;6.00;57.90;;;;;;5059455;28;20245;-78
2022/03/28 03:15:06;;;;;;;14.20;9.63;;;6.00;58.30;;;;;;5062581;28;20259;-79
2022/03/28 03:17:34;;;;;;;16.05;9.35;;;6.00;58.30;;;;;;5075881;28;20205;-79
2022/03/28 03:20:01;;;;;;;10.57;8.02;;;6.00;58.40;;;;;;5069120;28;20242;-80
2022/03/28 03:22:29;;;;;;;12.10;8.05;;;6.00;58.60;;;;;;5044828;28;20290;-79
2022/03/28 03:24:56;;;;;;;12.90;7.88;;;6.10;58.80;;;;;;5062744;28;20203;-79
2022/03/28 03:27:23;;;;;;;12.85;8.70;;;6.10;58.90;;;;;;5057925;28;20195;-79
2022/03/28 03:29:52;;;;;;;19.83;8.38;;;6.00;59.50;;;;;;5042383;28;20241;-79
2022/03/28 03:32:19;;;;;;;13.95;8.45;;;6.00;59.40;;;;;;5043415;28;20215;-79
2022/03/28 03:34:46;;;;;;;13.05;9.02;;;6.00;59.50;;;;;;5055047;28;20195;-81
2022/03/28 03:37:13;;;;;;;15.25;9.23;;;6.00;59.50;;;;;;5061870;28;20202;-79
2022/03/28 03:39:41;;;;;;;15.27;8.57;;;6.10;59.60;;;;;;5075703;28;20217;-79
2022/03/28 03:42:11;;;;;;;13.27;8.13;;;6.00;59.60;;;;;;5071222;28;20683;-80
2022/03/28 03:44:38;;;;;;;16.58;9.55;;;6.00;59.60;;;;;;5064828;28;20223;-80
2022/03/28 03:47:05;;;;;;;11.00;8.02;;;5.90;59.80;;;;;;5064487;28;20206;-81
2022/03/28 03:49:32;;;;;;;15.15;8.80;;;5.90;60.10;;;;;;5064110;28;20644;-82
2022/03/28 03:51:59;;;;;;;13.18;8.73;;;5.90;60.30;;;;;;5042817;28;20310;-83
2022/03/28 03:54:28;;;;;;;11.93;7.80;;;5.90;60.50;;;;;;5044225;28;20214;-82
2022/03/28 03:56:56;;;;;;;16.17;9.20;;;5.90;60.40;;;;;;5062593;28;20285;-82
2022/03/28 03:59:23;;;;;;;11.32;8.43;;;5.80;60.20;;;;;;5066298;28;20222;-82
2022/03/28 04:01:51;;;;;;;11.10;7.68;;;5.80;60.50;;;;;;5049901;28;20319;-80
2022/03/28 04:04:18;;;;;;;12.68;8.82;;;5.70;61.10;;;;;;5044394;28;20695;-80
2022/03/28 04:06:45;;;;;;;18.02;9.27;;;5.70;61.70;;;;;;5049125;28;20266;-80
2022/03/28 04:09:12;;;;;;;15.57;8.63;;;5.70;62.00;;;;;;5048980;28;20326;-81
2022/03/28 04:11:39;;;;;;;11.80;8.20;;;5.70;61.90;;;;;;5076292;22;20227;-78
2022/03/28 04:14:08;;;;;;;14.70;8.02;;;5.70;61.50;;;;;;5039643;28;20211;-78
2022/03/28 04:16:35;;;;;;;12.30;8.82;;;5.70;61.40;;;;;;5045312;28;20320;-78
2022/03/28 04:19:02;;;;;;;11.90;7.50;;;5.70;61.90;;;;;;5054795;28;20211;-78
2022/03/28 04:21:29;;;;;;;10.07;7.07;;;5.70;61.00;;;;;;5057701;28;20234;-78
2022/03/28 04:23:56;;;;;;;14.80;8.15;;;5.70;60.80;;;;;;5071988;28;20218;-79
2022/03/28 04:26:23;;;;;;;11.88;8.10;;;5.80;60.70;;;;;;5073619;28;20219;-78
2022/03/28 04:28:50;;;;;;;11.95;7.90;;;5.80;61.00;;;;;;5074701;28;20237;-78
2022/03/28 04:31:18;;;;;;;14.77;9.10;;;5.90;61.00;;;;;;5069063;28;20227;-77
2022/03/28 04:33:45;;;;;;;13.82;7.93;;;5.90;60.60;;;;;;5065629;28;20209;-79
2022/03/28 04:36:12;;;;;;;14.50;8.60;;;5.80;60.50;;;;;;5066106;28;20292;-77
2022/03/28 04:38:39;;;;;;;10.70;8.27;;;5.80;60.80;;;;;;5064065;28;20207;-77
2022/03/28 04:41:06;;;;;;;14.50;9.18;;;5.70;61.30;;;;;;5052105;28;20226;-78
2022/03/28 04:43:33;;;;;;;10.38;6.95;;;5.70;61.80;;;;;;5060139;28;20226;-78
2022/03/28 04:46:00;;;;;;;12.23;8.40;;;5.70;61.90;;;;;;5076218;28;20203;-78
2022/03/28 04:48:28;;;;;;;14.63;7.72;;;5.70;62.10;;;;;;5074920;28;20208;-78
2022/03/28 04:50:55;;;;;;;13.07;8.27;;;5.60;61.80;;;;;;5071983;28;20230;-78
2022/03/28 04:53:22;;;;;;;14.43;8.73;;;5.60;62.10;;;;;;5068259;28;20203;-78
2022/03/28 04:55:48;;;;;;;12.32;7.55;;;5.60;62.30;;;;;;5065721;28;20225;-79
2022/03/28 04:58:16;;;;;;;14.00;8.82;;;5.50;62.60;;;;;;5069638;28;20226;-79
2022/03/28 05:00:43;;;;;;;16.08;7.43;;;5.50;62.80;;;;;;5051989;28;20221;-80
2022/03/28 05:03:10;;;;;;;10.20;7.55;;;5.40;63.00;;;;;;5039830;28;20230;-79
2022/03/28 05:05:38;;;;;;;10.82;7.88;;;5.40;63.70;;;;;;5066279;28;20206;-78
2022/03/28 05:08:06;;;;;;;11.43;7.70;;;5.50;64.40;;;;;;5056693;28;20699;-78
2022/03/28 05:10:33;;;;;;;11.00;8.30;;;5.50;64.70;;;;;;5053810;28;20191;-78
2022/03/28 05:13:00;;;;;;;10.35;6.93;;;5.50;64.70;;;;;;5054864;28;20290;-78
2022/03/28 05:15:27;;;;;;;12.15;8.50;;;5.50;63.90;;;;;;5054677;28;20716;-78
2022/03/28 05:17:54;;;;;;;13.25;8.70;;;5.50;63.60;;;;;;5061802;28;20216;-76
2022/03/28 05:20:21;;;;;;;14.75;8.70;;;5.60;63.60;;;;;;5070928;28;20266;-78
2022/03/28 05:22:49;;;;;;;14.57;8.98;;;5.60;63.80;;;;;;5057008;28;20591;-77
2022/03/28 05:25:16;;;;;;;14.82;8.20;;;5.60;63.70;;;;;;5038546;28;20211;-78
2022/03/28 05:27:45;;;;;;;10.25;7.22;;;5.60;63.50;;;;;;5062778;28;20207;-77
2022/03/28 05:30:12;;;;;;;12.13;7.70;;;5.70;63.10;;;;;;5072478;28;20214;-77
2022/03/28 05:32:39;;;;;;;11.93;7.97;;;5.70;62.50;;;;;;5053560;28;20323;-77
2022/03/28 05:35:07;;;;;;;13.00;7.80;;;5.80;62.50;;;;;;5042383;28;20203;-77
2022/03/28 05:37:35;;;;;;;11.68;7.68;;;5.80;62.40;;;;;;5056401;28;20210;-78
2022/03/28 05:40:04;;;;;;;12.52;8.23;;;6.00;61.70;;;;;;5053785;28;20202;-78
2022/03/28 05:42:32;;;;;;;15.40;9.15;;;6.20;60.70;;;;;;5056983;28;20226;-79
2022/03/28 05:45:04;;;;;;;22.48;11.98;;;6.40;59.30;;;;;;5051160;28;20227;-78
2022/03/28 05:47:31;;;;;;;16.02;10.45;;;6.60;58.40;;;;;;5036086;28;20234;-78
2022/03/28 05:49:59;;;;;;;12.82;8.13;;;6.80;56.90;;;;;;5057133;28;20202;-79
2022/03/28 05:52:26;;;;;;;14.48;9.80;;;7.00;55.80;;;;;;5055314;28;20295;-78
2022/03/28 05:54:53;;;;;;;14.13;8.38;;;7.10;54.50;;;;;;5041909;28;20227;-78
2022/03/28 05:57:22;;;;;;;11.93;8.55;;;7.30;53.80;;;;;;5036077;28;20637;-78
2022/03/28 05:59:49;;;;;;;15.70;8.07;;;7.40;53.10;;;;;;5046961;28;20206;-78
2022/03/28 06:02:16;;;;;;;13.15;8.07;;;7.40;52.70;;;;;;5053605;28;20236;-78
2022/03/28 06:04:42;;;;;;;12.52;7.88;;;7.50;52.50;;;;;;5035252;28;20246;-78
2022/03/28 06:07:10;;;;;;;13.43;7.80;;;7.50;52.30;;;;;;5036141;28;20227;-77
2022/03/28 06:09:37;;;;;;;15.23;7.95;;;7.50;52.50;;;;;;5053441;28;20270;-77
2022/03/28 06:12:05;;;;;;;13.25;8.65;;;7.50;51.90;;;;;;5054038;28;20238;-78
2022/03/28 06:14:33;;;;;;;15.55;9.25;;;7.50;51.60;;;;;;5040495;28;20290;-77
2022/03/28 06:17:00;;;;;;;17.92;10.30;;;7.60;51.40;;;;;;5037891;28;20284;-78
2022/03/28 06:19:27;;;;;;;13.40;8.15;;;7.60;51.10;;;;;;5056010;28;20233;-79
2022/03/28 06:21:53;;;;;;;12.35;7.97;;;7.60;51.00;;;;;;5060039;28;20292;-77
2022/03/28 06:24:20;;;;;;;12.85;7.80;;;7.70;50.60;;;;;;5059659;28;20257;-77
2022/03/28 06:26:47;;;;;;;14.38;9.00;;;7.80;50.30;;;;;;5064788;28;20217;-77
2022/03/28 06:29:15;;;;;;;13.73;8.82;;;7.80;49.50;;;;;;5062943;28;20578;-78
2022/03/28 06:31:46;;;;;;;17.42;9.05;;;7.90;48.40;;;;;;5068916;28;20218;-78
2022/03/28 06:34:13;;;;;;;14.32;9.13;;;7.90;48.40;;;;;;5080823;28;20221;-78
2022/03/28 06:36:43;;;;;;;13.45;9.07;;;8.00;48.50;;;;;;5068372;28;20286;-80
2022/03/28 06:39:10;;;;;;;15.48;8.90;;;8.10;48.60;;;;;;5047093;28;20207;-79
2022/03/28 06:41:37;;;;;;;17.13;9.82;;;8.10;48.60;;;;;;5041312;28;20246;-79
2022/03/28 06:44:05;;;;;;;15.55;9.50;;;8.20;48.60;;;;;;5047849;28;20318;-79
2022/03/28 06:46:32;;;;;;;12.98;8.63;;;8.30;48.00;;;;;;5059205;28;20234;-79
2022/03/28 06:49:00;;;;;;;18.05;9.57;;;8.40;46.90;;;;;;5052347;28;20226;-79
2022/03/28 06:51:27;;;;;;;11.55;8.60;;;8.60;46.50;;;;;;5039283;28;20334;-79
2022/03/28 06:53:54;;;;;;;15.30;9.50;;;8.70;46.30;;;;;;5043523;28;20303;-78
2022/03/28 06:56:21;;;;;;;14.32;9.60;;;8.80;44.80;;;;;;5060143;28;20236;-78
2022/03/28 06:58:48;;;;;;;16.92;9.55;;;8.90;43.90;;;;;;5061014;28;20211;-79
2022/03/28 07:01:15;;;;;;;19.88;10.35;;;9.10;42.50;;;;;;5048128;28;20231;-79
2022/03/28 07:03:42;;;;;;;23.05;10.43;;;9.20;42.00;;;;;;5054120;28;20237;-78
2022/03/28 07:06:11;;;;;;;21.88;9.82;;;9.40;40.60;;;;;;5066362;28;20334;-79
2022/03/28 07:08:38;;;;;;;17.13;9.10;;;9.50;40.10;;;;;;5050479;28;20272;-79
2022/03/28 07:11:05;;;;;;;12.18;8.80;;;9.70;40.20;;;;;;5062228;28;20202;-79
2022/03/28 07:13:32;;;;;;;12.93;9.13;;;9.80;39.60;;;;;;5047730;28;20231;-80
2022/03/28 07:15:59;;;;;;;12.88;9.50;;;10.00;37.50;;;;;;5047339;28;20230;-78
2022/03/28 07:18:26;;;;;;;14.07;9.65;;;10.10;36.90;;;;;;5049122;28;20238;-78
2022/03/28 07:20:53;;;;;;;17.50;9.20;;;10.20;36.90;;;;;;5052832;28;20266;-80
2022/03/28 07:23:22;;;;;;;16.80;10.00;;;10.40;36.30;;;;;;5058503;28;20290;-78
2022/03/28 07:25:49;;;;;;;15.68;9.48;;;10.50;35.80;;;;;;5049536;28;20207;-79
2022/03/28 07:28:17;;;;;;;14.57;9.57;;;10.60;35.10;;;;;;5039811;28;20211;-80
2022/03/28 07:30:45;;;;;;;13.15;9.40;;;10.70;35.20;;;;;;5060654;28;20233;-79
2022/03/28 07:33:12;;;;;;;20.45;10.07;;;10.90;34.80;;;;;;5061338;28;20228;-81
2022/03/28 07:35:41;;;;;;;12.60;9.27;;;10.90;34.20;;;;;;5064526;28;20210;-78
2022/03/28 07:38:10;;;;;;;15.48;8.90;;;11.00;34.00;;;;;;5066893;28;20202;-80
2022/03/28 07:40:40;;;;;;;13.32;9.68;;;10.90;33.90;;;;;;5056787;28;20214;-81
2022/03/28 07:43:08;;;;;;;14.38;9.57;;;11.00;34.00;;;;;;5047997;28;20231;-79
2022/03/28 07:45:36;;;;;;;14.93;9.02;;;11.10;33.60;;;;;;5059773;28;20272;-79
2022/03/28 07:48:05;;;;;;;17.10;10.45;;;11.20;33.80;;;;;;5060056;28;20211;-81
2022/03/28 07:50:32;;;;;;;13.80;9.30;;;11.30;33.70;;;;;;5043447;28;20622;-80
2022/03/28 07:52:59;;;;;;;21.35;10.20;;;11.40;33.40;;;;;;5043845;28;20227;-81
2022/03/28 07:55:28;;;;;;;16.00;9.77;;;11.40;33.40;;;;;;5044960;28;20207;-81
2022/03/28 07:57:59;;;;;;;16.52;10.20;;;11.40;33.90;;;;;;5044702;28;20270;-80
2022/03/28 08:00:27;;;;;;;16.02;10.23;;;11.50;34.00;;;;;;5042928;28;20234;-79
2022/03/28 08:02:55;;;;;;;16.15;10.98;;;11.50;34.20;;;;;;5044466;28;20231;-83
2022/03/28 08:05:22;;;;;;;12.05;9.48;;;11.50;34.50;;;;;;5041698;28;20281;-81
2022/03/28 08:07:49;;;;;;;11.35;9.10;;;11.60;34.60;;;;;;5047211;28;20203;-81
2022/03/28 08:10:17;;;;;;;14.60;9.52;;;11.80;34.40;;;;;;5052026;28;20237;-78
2022/03/28 08:12:44;;;;;;;18.23;10.00;;;12.00;34.00;;;;;;5059260;28;20325;-81
2022/03/28 08:15:15;;;;;;;13.30;10.10;;;12.20;33.90;;;;;;5050803;28;20267;-80
2022/03/28 08:17:43;;;;;;;14.70;9.88;;;12.40;33.20;;;;;;5061471;28;20209;-80
2022/03/28 08:20:12;;;;;;;19.30;11.82;;;12.50;32.70;;;;;;5070096;28;20286;-81
2022/03/28 08:22:40;;;;;;;14.57;10.52;;;12.70;32.00;;;;;;5075914;28;20325;-80
2022/03/28 08:25:08;;;;;;;15.00;10.75;;;12.70;32.00;;;;;;5076931;28;20230;-79
2022/03/28 08:27:36;;;;;;;20.02;12.40;;;12.90;30.90;;;;;;5074077;28;20183;-80
2022/03/28 08:30:05;;;;;;;16.52;11.07;;;13.00;30.20;;;;;;5077422;28;20229;-77
2022/03/28 08:32:34;;;;;;;18.10;10.85;;;13.00;30.00;;;;;;5078073;28;20214;-82
2022/03/28 08:35:02;;;;;;;17.02;11.10;;;13.10;30.00;;;;;;5069874;28;20205;-77
2022/03/28 08:37:29;;;;;;;16.40;10.65;;;13.30;29.80;;;;;;5055685;28;20211;-79
2022/03/28 08:39:56;;;;;;;21.77;12.05;;;13.30;29.50;;;;;;5041622;28;20213;-78
2022/03/28 08:42:24;;;;;;;23.33;10.77;;;13.30;29.30;;;;;;5037691;28;20582;-78
2022/03/28 08:44:51;;;;;;;19.65;11.75;;;13.40;29.40;;;;;;5064002;28;21012;-77
2022/03/28 08:47:19;;;;;;;22.50;12.17;;;13.40;29.40;;;;;;5062243;28;20199;-77
2022/03/28 08:49:49;;;;;;;18.10;11.60;;;13.60;29.00;;;;;;5053050;28;20476;-77
2022/03/28 08:52:16;;;;;;;16.40;11.70;;;13.70;28.90;;;;;;5069913;28;20435;-77
2022/03/28 08:54:44;;;;;;;18.35;11.32;;;13.80;28.50;;;;;;5071107;28;20684;-77
2022/03/28 08:57:13;;;;;;;21.33;12.40;;;14.00;28.30;;;;;;5069685;28;20205;-76
2022/03/28 08:59:40;;;;;;;19.40;12.20;;;14.20;27.90;;;;;;5058684;28;20467;-76
2022/03/28 09:02:26;;;;;;;18.87;12.23;;;14.20;27.80;;;;;;5037691;28;20813;-77
2022/03/28 09:04:57;;;;;;;18.13;11.83;;;14.20;28.10;;;;;;5035083;28;20936;-77
2022/03/28 09:07:26;;;;;;;17.10;10.60;;;14.40;27.80;;;;;;5053265;28;20431;-80
2022/03/28 09:09:58;;;;;;;15.53;11.10;;;14.50;27.60;;;;;;5041932;28;20404;-77
2022/03/28 09:12:25;;;;;;;15.97;10.47;;;14.60;27.40;;;;;;5052839;28;20474;-78
2022/03/28 09:14:58;;;;;;;21.37;11.20;;;14.70;27.60;;;;;;5040186;28;20420;-79
2022/03/28 09:17:26;;;;;;;16.93;11.63;;;14.70;27.40;;;;;;5036551;28;20484;-80
2022/03/28 09:19:55;;;;;;;17.83;11.97;;;14.80;27.70;;;;;;5038803;28;20457;-80
2022/03/28 09:22:27;;;;;;;24.67;12.30;;;14.90;27.40;;;;;;5044712;28;21055;-78
2022/03/28 09:24:57;;;;;;;16.67;11.60;;;14.90;27.50;;;;;;5056364;28;20467;-79
2022/03/28 09:27:27;;;;;;;16.50;11.83;;;15.10;27.40;;;;;;5056372;28;20445;-78
2022/03/28 09:30:03;;;;;;;18.63;12.20;;;15.30;27.10;;;;;;5037804;28;20488;-78
2022/03/28 09:32:32;;;;;;;19.90;11.37;;;15.40;26.40;;;;;;5056161;28;20443;-78
2022/03/28 09:35:06;;;;;;;20.63;12.00;;;15.50;26.30;;;;;;5061162;28;20906;-78
2022/03/28 09:37:51;;;;;;;20.90;11.33;;;15.40;26.50;;;;;;5041268;28;20468;-78
2022/03/28 09:40:33;;;;;;;19.63;12.47;;;15.40;26.10;;;;;;5040643;28;20548;-80
2022/03/28 09:43:01;;;;;;;17.83;11.50;;;15.50;25.80;;;;;;5055168;28;20527;-78
2022/03/28 09:45:31;;;;;;;22.03;12.17;;;15.60;26.00;;;;;;5049459;28;20474;-77
2022/03/28 09:48:01;;;;;;;23.13;12.20;;;15.70;25.80;;;;;;5046055;28;20503;-78
2022/03/28 09:50:30;;;;;;;19.33;11.80;;;15.90;25.90;;;;;;5034524;28;20538;-78
2022/03/28 09:53:13;;;;;;;18.50;11.40;;;16.00;26.00;;;;;;5035030;28;20493;-78
2022/03/28 09:55:48;;;;;;;16.77;11.87;;;16.10;26.10;;;;;;5041119;28;20429;-77
2022/03/28 09:58:37;;;;;;;21.23;12.30;;;16.10;26.10;;;;;;5042699;28;20829;-77
2022/03/28 10:01:08;;;;;;;21.83;12.97;;;16.20;26.10;;;;;;5048445;28;20510;-78
2022/03/28 10:03:36;;;;;;;21.70;12.97;;;16.40;25.20;;;;;;5060837;28;20440;-77
2022/03/28 10:06:05;;;;;;;17.13;11.70;;;16.40;25.50;;;;;;5055785;28;20552;-78
2022/03/28 10:08:35;;;;;;;23.20;12.43;;;16.60;25.60;;;;;;5055870;28;20483;-79
2022/03/28 10:11:02;;;;;;;17.97;12.57;;;16.70;24.90;;;;;;5054868;28;20531;-78
2022/03/28 10:13:30;;;;;;;22.90;11.90;;;16.80;24.70;;;;;;5095632;22;20463;-76
2022/03/28 10:15:58;;;;;;;18.70;11.77;;;16.80;24.70;;;;;;5077077;28;20459;-76
2022/03/28 10:18:27;;;;;;;19.70;12.80;;;16.90;24.80;;;;;;5071467;28;20419;-75
2022/03/28 10:20:56;;;;;;;20.43;11.83;;;17.10;23.90;;;;;;5083785;28;20476;-75
2022/03/28 10:23:27;;;;;;;25.07;12.20;;;17.30;23.50;;;;;;5092537;28;20494;-76
2022/03/28 10:25:58;;;;;;;22.67;11.60;;;17.50;23.20;;;;;;5083803;28;20484;-76
2022/03/28 10:28:24;;;;;;;27.00;13.60;;;17.50;23.10;;;;;;5071460;28;20459;-77
2022/03/28 10:31:09;;;;;;;20.70;12.77;;;17.60;23.40;;;;;;5080342;28;20490;-76
2022/03/28 10:33:45;;;;;;;19.83;12.43;;;17.70;23.50;;;;;;5079844;28;20484;-77
2022/03/28 10:36:23;;;;;;;26.53;12.73;;;17.80;23.20;;;;;;5065342;28;20430;-76
2022/03/28 10:38:51;;;;;;;23.47;13.57;;;17.80;22.80;;;;;;5062096;28;20449;-76
2022/03/28 10:41:20;;;;;;;17.37;11.40;;;17.90;22.90;;;;;;5059416;28;20443;-78
2022/03/28 10:43:48;;;;;;;21.83;13.40;;;18.00;22.60;;;;;;5066788;28;20544;-76
2022/03/28 10:46:16;;;;;;;16.77;10.90;;;18.20;22.50;;;;;;5079365;28;20500;-75
2022/03/28 10:48:46;;;;;;;18.73;12.10;;;18.20;21.80;;;;;;5072871;28;20455;-76
2022/03/28 10:51:15;;;;;;;23.93;13.47;;;18.30;21.70;;;;;;5061324;28;20475;-77
2022/03/28 10:53:43;;;;;;;21.63;12.67;;;18.30;21.90;;;;;;5078974;28;20475;-73
2022/03/28 10:56:20;;;;;;;20.30;11.87;;;18.30;22.10;;;;;;5096212;28;20441;-73
2022/03/28 10:58:51;;;;;;;20.20;13.27;;;18.50;21.80;;;;;;5087942;28;20440;-73
2022/03/28 11:01:29;;;;;;;19.23;13.07;;;18.70;21.90;;;;;;5071176;28;20416;-75
2022/03/28 11:04:00;;;;;;;19.23;11.33;;;18.70;21.10;;;;;;5080631;28;20523;-74
2022/03/28 11:06:49;;;;;;;21.13;11.90;;;18.90;20.80;;;;;;5088736;28;20488;-76
2022/03/28 11:09:32;;;;;;;19.40;11.93;;;19.10;20.00;;;;;;5069395;28;20423;-75
2022/03/28 11:12:10;;;;;;;21.90;12.03;;;19.20;20.10;;;;;;5077395;28;20883;-76
2022/03/28 11:14:42;;;;;;;22.80;12.90;;;19.20;20.10;;;;;;5089346;28;20459;-76
2022/03/28 11:17:20;;;;;;;25.27;13.00;;;19.30;20.20;;;;;;5088911;28;20467;-76
2022/03/28 11:19:58;;;;;;;19.13;13.30;;;19.40;20.30;;;;;;5089573;28;20469;-75
2022/03/28 11:22:47;;;;;;;19.80;12.70;;;19.40;20.20;;;;;;5070363;28;20480;-75
2022/03/28 11:25:41;;;;;;;20.23;11.73;;;19.50;20.30;;;;;;5062307;28;20584;-76
2022/03/28 11:28:15;;;;;;;19.17;12.43;;;19.60;19.30;;;;;;5080429;28;20456;-76
2022/03/28 11:30:51;;;;;;;24.07;12.70;;;19.60;19.20;;;;;;5088066;28;20423;-76
2022/03/28 11:33:21;;;;;;;22.80;12.87;;;19.60;19.40;;;;;;5073215;28;20461;-76
2022/03/28 11:35:54;;;;;;;26.77;13.23;;;19.60;18.90;;;;;;5084070;28;20453;-77
2022/03/28 11:38:23;;;;;;;15.47;12.33;;;19.70;18.90;;;;;;5065310;28;20503;-77
2022/03/28 11:40:50;;;;;;;20.80;12.90;;;19.80;19.20;;;;;;5075932;28;20547;-77
2022/03/28 11:43:26;;;;;;;19.30;12.30;;;20.00;18.70;;;;;;5079916;28;20443;-75
2022/03/28 11:45:55;;;;;;;16.43;11.60;;;20.00;17.20;;;;;;5066942;28;20550;-77
2022/03/28 11:48:22;;;;;;;22.97;13.60;;;19.90;16.70;;;;;;5041006;28;20450;-76
2022/03/28 11:50:49;;;;;;;19.50;12.63;;;19.90;17.00;;;;;;5040458;28;20844;-77
2022/03/28 11:53:17;;;;;;;20.13;11.77;;;19.80;17.10;;;;;;5042776;28;20448;-77
2022/03/28 11:55:52;;;;;;;19.20;11.77;;;19.70;17.30;;;;;;5070173;28;20530;-76
2022/03/28 11:58:30;;;;;;;16.87;11.90;;;19.80;17.20;;;;;;5081859;28;20978;-77
2022/03/28 12:01:09;;;;;;;23.00;12.40;;;20.00;17.60;;;;;;5078596;28;20521;-77
2022/03/28 12:03:37;;;;;;;21.53;13.20;;;20.00;18.10;;;;;;5084116;28;21032;-76
2022/03/28 12:06:05;;;;;;;19.07;11.90;;;20.20;17.30;;;;;;5065758;28;20525;-77
2022/03/28 12:08:32;;;;;;;22.20;12.77;;;20.30;16.90;;;;;;5056305;28;20556;-76
2022/03/28 12:10:59;;;;;;;21.20;11.37;;;20.50;16.80;;;;;;5071740;28;20431;-77
2022/03/28 12:13:26;;;;;;;24.20;13.40;;;20.60;16.50;;;;;;5079062;28;20667;-76
2022/03/28 12:15:56;;;;;;;19.07;12.63;;;20.80;16.50;;;;;;5078144;28;20493;-78
2022/03/28 12:18:29;;;;;;;19.13;12.10;;;20.80;16.70;;;;;;5078170;28;20560;-77
2022/03/28 12:20:57;;;;;;;20.40;12.90;;;20.80;16.80;;;;;;5044932;28;20448;-78
2022/03/28 12:23:26;;;;;;;24.93;12.20;;;20.70;16.60;;;;;;5048443;28;20478;-78
2022/03/28 12:25:55;;;;;;;18.27;11.60;;;20.70;16.70;;;;;;5050654;28;20466;-80
2022/03/28 12:28:28;;;;;;;21.17;12.10;;;20.70;15.70;;;;;;5098030;28;20426;-75
2022/03/28 12:30:59;;;;;;;17.03;11.80;;;20.80;15.60;;;;;;5098653;28;20443;-78
2022/03/28 12:33:28;;;;;;;18.87;12.70;;;20.90;14.90;;;;;;5058633;28;20495;-77
2022/03/28 12:35:58;;;;;;;16.30;12.63;;;21.10;14.70;;;;;;5058819;28;20454;-80
2022/03/28 12:38:27;;;;;;;21.00;12.60;;;21.20;15.20;;;;;;5096777;28;20427;-77
2022/03/28 12:40:56;;;;;;;17.00;11.33;;;21.30;14.80;;;;;;5098467;28;20465;-76
2022/03/28 12:43:27;;;;;;;16.97;11.97;;;21.40;14.40;;;;;;5097964;28;20498;-78
2022/03/28 12:45:57;;;;;;;17.23;11.47;;;21.40;13.80;;;;;;5097308;28;20486;-78